sensor_id;sensor_type;location;lat;lon;timestamp;pressure;altitude;pressure_sealevel;temperature;humidity
4767;BME280;2397;53.576;9.746;2023-04-25T00:01:40;100487.19;;;7.75;89.86
4767;BME280;2397;53.576;9.746;2023-04-25T00:04:07;100481.41;;;7.71;90.21
4767;BME280;2397;53.576;9.746;2023-04-25T00:06:34;100491.47;;;7.66;90.33
4767;BME280;2397;53.576;9.746;2023-04-25T00:09:03;100491.59;;;7.74;90.54
4767;BME280;2397;53.576;9.746;2023-04-25T00:11:33;100498.38;;;7.67;90.33
4767;BME280;2397;53.576;9.746;2023-04-25T00:14:00;100498.09;;;7.70;90.64
4767;BME280;2397;53.576;9.746;2023-04-25T00:16:29;100495.06;;;7.75;90.60
4767;BME280;2397;53.576;9.746;2023-04-25T00:18:57;100486.34;;;7.65;89.61
4767;BME280;2397;53.576;9.746;2023-04-25T00:21:24;100493.44;;;7.64;88.66
4767;BME280;2397;53.576;9.746;2023-04-25T00:23:52;100492.59;;;7.54;87.07
4767;BME280;2397;53.576;9.746;2023-04-25T00:26:19;100495.47;;;7.51;85.98
4767;BME280;2397;53.576;9.746;2023-04-25T00:28:47;100495.75;;;7.48;84.98
4767;BME280;2397;53.576;9.746;2023-04-25T00:31:14;100501.84;;;7.49;84.40
4767;BME280;2397;53.576;9.746;2023-04-25T00:33:41;100501.00;;;7.48;84.18
4767;BME280;2397;53.576;9.746;2023-04-25T00:36:08;100509.31;;;7.44;84.04
4767;BME280;2397;53.576;9.746;2023-04-25T00:38:35;100514.69;;;7.52;83.35
4767;BME280;2397;53.576;9.746;2023-04-25T00:41:02;100511.78;;;7.45;83.15
4767;BME280;2397;53.576;9.746;2023-04-25T00:43:30;100519.13;;;7.51;83.12
4767;BME280;2397;53.576;9.746;2023-04-25T00:45:57;100523.97;;;7.46;83.51
4767;BME280;2397;53.576;9.746;2023-04-25T00:48:23;100517.59;;;7.49;82.33
4767;BME280;2397;53.576;9.746;2023-04-25T00:50:52;100531.38;;;7.41;81.82
4767;BME280;2397;53.576;9.746;2023-04-25T00:53:25;100520.34;;;7.38;80.43
4767;BME280;2397;53.576;9.746;2023-04-25T00:55:52;100525.03;;;7.34;80.93
4767;BME280;2397;53.576;9.746;2023-04-25T00:58:21;100529.44;;;7.24;80.26
4767;BME280;2397;53.576;9.746;2023-04-25T01:00:49;100529.19;;;7.27;80.01
4767;BME280;2397;53.576;9.746;2023-04-25T01:03:18;100532.47;;;7.20;80.42
4767;BME280;2397;53.576;9.746;2023-04-25T01:05:48;100538.28;;;7.23;79.50
4767;BME280;2397;53.576;9.746;2023-04-25T01:08:15;100534.94;;;7.21;79.54
4767;BME280;2397;53.576;9.746;2023-04-25T01:10:42;100536.88;;;7.19;79.89
4767;BME280;2397;53.576;9.746;2023-04-25T01:13:08;100530.09;;;7.17;79.13
4767;BME280;2397;53.576;9.746;2023-04-25T01:15:35;100529.69;;;7.12;80.06
4767;BME280;2397;53.576;9.746;2023-04-25T01:18:04;100537.81;;;7.08;79.77
4767;BME280;2397;53.576;9.746;2023-04-25T01:20:32;100536.44;;;7.04;79.91
4767;BME280;2397;53.576;9.746;2023-04-25T01:22:59;100539.06;;;7.14;79.83
4767;BME280;2397;53.576;9.746;2023-04-25T01:25:26;100539.34;;;7.11;79.31
4767;BME280;2397;53.576;9.746;2023-04-25T01:27:53;100539.47;;;7.09;79.36
4767;BME280;2397;53.576;9.746;2023-04-25T01:30:20;100541.50;;;6.96;79.81
4767;BME280;2397;53.576;9.746;2023-04-25T01:32:47;100540.84;;;7.04;79.49
4767;BME280;2397;53.576;9.746;2023-04-25T01:35:14;100536.13;;;6.98;80.22
4767;BME280;2397;53.576;9.746;2023-04-25T01:37:42;100547.31;;;7.00;80.13
4767;BME280;2397;53.576;9.746;2023-04-25T01:40:11;100544.84;;;7.08;79.71
4767;BME280;2397;53.576;9.746;2023-04-25T01:42:40;100551.31;;;7.04;79.28
4767;BME280;2397;53.576;9.746;2023-04-25T01:45:08;100552.88;;;7.07;78.91
4767;BME280;2397;53.576;9.746;2023-04-25T01:47:35;100552.44;;;7.01;79.14
4767;BME280;2397;53.576;9.746;2023-04-25T01:50:03;100554.75;;;6.95;78.93
4767;BME280;2397;53.576;9.746;2023-04-25T01:52:30;100550.66;;;7.02;78.26
4767;BME280;2397;53.576;9.746;2023-04-25T01:54:59;100557.38;;;6.95;77.96
4767;BME280;2397;53.576;9.746;2023-04-25T01:57:29;100556.25;;;6.88;78.24
4767;BME280;2397;53.576;9.746;2023-04-25T02:00:01;100558.25;;;6.75;78.12
4767;BME280;2397;53.576;9.746;2023-04-25T02:02:38;100560.47;;;6.79;78.15
4767;BME280;2397;53.576;9.746;2023-04-25T02:05:15;100557.72;;;6.81;77.22
4767;BME280;2397;53.576;9.746;2023-04-25T02:07:42;100554.94;;;6.73;76.55
4767;BME280;2397;53.576;9.746;2023-04-25T02:10:09;100559.22;;;6.74;75.46
4767;BME280;2397;53.576;9.746;2023-04-25T02:12:48;100562.38;;;6.68;75.75
4767;BME280;2397;53.576;9.746;2023-04-25T02:15:53;100562.75;;;6.63;75.72
4767;BME280;2397;53.576;9.746;2023-04-25T02:18:20;100559.44;;;6.61;75.66
4767;BME280;2397;53.576;9.746;2023-04-25T02:20:47;100572.34;;;6.74;73.86
4767;BME280;2397;53.576;9.746;2023-04-25T02:23:14;100573.31;;;6.73;73.88
4767;BME280;2397;53.576;9.746;2023-04-25T02:25:45;100568.25;;;6.60;74.24
4767;BME280;2397;53.576;9.746;2023-04-25T02:28:12;100575.75;;;6.65;74.05
4767;BME280;2397;53.576;9.746;2023-04-25T02:30:39;100584.69;;;6.83;73.78
4767;BME280;2397;53.576;9.746;2023-04-25T02:33:05;100583.41;;;6.77;72.37
4767;BME280;2397;53.576;9.746;2023-04-25T02:35:32;100581.25;;;6.62;73.06
4767;BME280;2397;53.576;9.746;2023-04-25T02:37:59;100581.25;;;6.62;72.77
4767;BME280;2397;53.576;9.746;2023-04-25T02:40:25;100586.88;;;6.57;72.26
4767;BME280;2397;53.576;9.746;2023-04-25T02:42:53;100584.13;;;6.59;72.83
4767;BME280;2397;53.576;9.746;2023-04-25T02:45:19;100584.84;;;6.61;72.25
4767;BME280;2397;53.576;9.746;2023-04-25T02:47:46;100583.88;;;6.62;73.25
4767;BME280;2397;53.576;9.746;2023-04-25T02:50:12;100587.28;;;6.53;72.99
4767;BME280;2397;53.576;9.746;2023-04-25T02:52:39;100582.47;;;6.58;72.93
4767;BME280;2397;53.576;9.746;2023-04-25T02:55:16;100577.53;;;6.64;71.92
4767;BME280;2397;53.576;9.746;2023-04-25T02:57:44;100577.41;;;6.66;70.94
4767;BME280;2397;53.576;9.746;2023-04-25T03:00:14;100578.78;;;6.40;71.96
4767;BME280;2397;53.576;9.746;2023-04-25T03:02:41;100572.56;;;6.41;72.40
4767;BME280;2397;53.576;9.746;2023-04-25T03:05:08;100573.28;;;6.43;71.62
4767;BME280;2397;53.576;9.746;2023-04-25T03:07:35;100582.72;;;6.34;71.16
4767;BME280;2397;53.576;9.746;2023-04-25T03:10:02;100589.88;;;6.32;71.22
4767;BME280;2397;53.576;9.746;2023-04-25T03:12:31;100592.50;;;6.32;71.28
4767;BME280;2397;53.576;9.746;2023-04-25T03:14:57;100598.59;;;6.33;69.97
4767;BME280;2397;53.576;9.746;2023-04-25T03:17:24;100594.94;;;6.24;70.04
4767;BME280;2397;53.576;9.746;2023-04-25T03:19:51;100596.28;;;6.19;70.94
4767;BME280;2397;53.576;9.746;2023-04-25T03:22:17;100602.59;;;6.16;70.08
4767;BME280;2397;53.576;9.746;2023-04-25T03:24:44;100601.00;;;6.25;68.65
4767;BME280;2397;53.576;9.746;2023-04-25T03:27:10;100606.88;;;6.17;69.58
4767;BME280;2397;53.576;9.746;2023-04-25T03:29:37;100605.47;;;6.13;69.89
4767;BME280;2397;53.576;9.746;2023-04-25T03:32:04;100606.19;;;6.15;68.40
4767;BME280;2397;53.576;9.746;2023-04-25T03:34:31;100608.44;;;6.20;67.85
4767;BME280;2397;53.576;9.746;2023-04-25T03:36:59;100608.63;;;6.28;66.11
4767;BME280;2397;53.576;9.746;2023-04-25T03:39:27;100614.72;;;6.17;66.42
4767;BME280;2397;53.576;9.746;2023-04-25T03:41:54;100613.16;;;6.26;65.80
4767;BME280;2397;53.576;9.746;2023-04-25T03:44:21;100616.97;;;6.22;65.70
4767;BME280;2397;53.576;9.746;2023-04-25T03:46:48;100620.69;;;6.19;66.43
4767;BME280;2397;53.576;9.746;2023-04-25T03:49:14;100611.09;;;6.09;65.41
4767;BME280;2397;53.576;9.746;2023-04-25T03:52:02;100617.63;;;6.14;65.73
4767;BME280;2397;53.576;9.746;2023-04-25T03:54:34;100621.22;;;6.02;65.83
4767;BME280;2397;53.576;9.746;2023-04-25T03:57:07;100620.06;;;5.95;66.15
4767;BME280;2397;53.576;9.746;2023-04-25T03:59:37;100633.03;;;5.97;66.45
4767;BME280;2397;53.576;9.746;2023-04-25T04:02:04;100626.59;;;6.01;66.01
4767;BME280;2397;53.576;9.746;2023-04-25T04:04:33;100626.16;;;5.96;66.22
4767;BME280;2397;53.576;9.746;2023-04-25T04:07:00;100625.78;;;6.00;66.16
4767;BME280;2397;53.576;9.746;2023-04-25T04:09:30;100626.47;;;6.02;66.61
4767;BME280;2397;53.576;9.746;2023-04-25T04:11:59;100639.13;;;5.97;67.47
4767;BME280;2397;53.576;9.746;2023-04-25T04:14:25;100638.34;;;6.06;66.00
4767;BME280;2397;53.576;9.746;2023-04-25T04:16:53;100644.19;;;6.10;65.92
4767;BME280;2397;53.576;9.746;2023-04-25T04:19:20;100642.44;;;5.99;65.32
4767;BME280;2397;53.576;9.746;2023-04-25T04:21:55;100646.84;;;5.99;66.81
4767;BME280;2397;53.576;9.746;2023-04-25T04:24:22;100643.41;;;5.98;66.60
4767;BME280;2397;53.576;9.746;2023-04-25T04:26:54;100638.78;;;5.91;66.82
4767;BME280;2397;53.576;9.746;2023-04-25T04:29:29;100642.84;;;5.84;67.10
4767;BME280;2397;53.576;9.746;2023-04-25T04:31:59;100646.56;;;5.81;68.94
4767;BME280;2397;53.576;9.746;2023-04-25T04:34:30;100652.81;;;5.90;67.93
4767;BME280;2397;53.576;9.746;2023-04-25T04:36:57;100651.38;;;5.97;67.14
4767;BME280;2397;53.576;9.746;2023-04-25T04:39:24;100655.69;;;5.98;68.49
4767;BME280;2397;53.576;9.746;2023-04-25T04:42:02;100663.06;;;5.93;68.10
4767;BME280;2397;53.576;9.746;2023-04-25T04:44:48;100670.19;;;6.02;67.92
4767;BME280;2397;53.576;9.746;2023-04-25T04:47:30;100668.97;;;6.06;68.08
4767;BME280;2397;53.576;9.746;2023-04-25T04:50:10;100676.47;;;5.99;69.23
4767;BME280;2397;53.576;9.746;2023-04-25T04:52:55;100686.38;;;6.07;68.43
4767;BME280;2397;53.576;9.746;2023-04-25T04:55:40;100680.16;;;6.08;68.63
4767;BME280;2397;53.576;9.746;2023-04-25T04:58:21;100680.28;;;6.06;67.67
4767;BME280;2397;53.576;9.746;2023-04-25T05:01:01;100683.28;;;6.02;68.15
4767;BME280;2397;53.576;9.746;2023-04-25T05:03:32;100692.09;;;6.01;67.70
4767;BME280;2397;53.576;9.746;2023-04-25T05:06:00;100698.53;;;5.97;67.43
4767;BME280;2397;53.576;9.746;2023-04-25T05:08:34;100701.78;;;5.89;68.42
4767;BME280;2397;53.576;9.746;2023-04-25T05:11:19;100706.63;;;5.94;68.52
4767;BME280;2397;53.576;9.746;2023-04-25T05:14:06;100700.56;;;5.93;68.77
4767;BME280;2397;53.576;9.746;2023-04-25T05:16:46;100700.81;;;5.90;69.79
4767;BME280;2397;53.576;9.746;2023-04-25T05:19:29;100711.19;;;5.81;70.79
4767;BME280;2397;53.576;9.746;2023-04-25T05:22:14;100708.22;;;5.85;70.82
4767;BME280;2397;53.576;9.746;2023-04-25T05:24:59;100703.78;;;5.86;71.04
4767;BME280;2397;53.576;9.746;2023-04-25T05:27:50;100706.16;;;5.78;72.50
4767;BME280;2397;53.576;9.746;2023-04-25T05:30:27;100710.72;;;5.87;71.53
4767;BME280;2397;53.576;9.746;2023-04-25T05:33:10;100715.53;;;5.80;71.91
4767;BME280;2397;53.576;9.746;2023-04-25T05:35:37;100719.13;;;5.90;72.00
4767;BME280;2397;53.576;9.746;2023-04-25T05:38:04;100720.34;;;5.86;71.91
4767;BME280;2397;53.576;9.746;2023-04-25T05:40:54;100712.59;;;5.85;72.29
4767;BME280;2397;53.576;9.746;2023-04-25T05:43:42;100712.81;;;5.93;71.94
4767;BME280;2397;53.576;9.746;2023-04-25T05:46:37;100711.25;;;6.01;71.75
4767;BME280;2397;53.576;9.746;2023-04-25T05:49:24;100716.38;;;6.03;70.76
4767;BME280;2397;53.576;9.746;2023-04-25T05:52:18;100718.72;;;6.17;70.63
4767;BME280;2397;53.576;9.746;2023-04-25T05:55:01;100718.50;;;6.20;71.73
4767;BME280;2397;53.576;9.746;2023-04-25T05:57:29;100720.63;;;6.15;69.97
4767;BME280;2397;53.576;9.746;2023-04-25T05:59:55;100728.25;;;6.18;70.33
4767;BME280;2397;53.576;9.746;2023-04-25T06:02:38;100731.31;;;6.23;70.73
4767;BME280;2397;53.576;9.746;2023-04-25T06:05:05;100741.31;;;6.29;70.86
4767;BME280;2397;53.576;9.746;2023-04-25T06:07:33;100749.63;;;6.34;70.89
4767;BME280;2397;53.576;9.746;2023-04-25T06:10:01;100754.66;;;6.26;71.55
4767;BME280;2397;53.576;9.746;2023-04-25T06:12:28;100759.53;;;6.30;72.29
4767;BME280;2397;53.576;9.746;2023-04-25T06:14:54;100764.91;;;6.29;73.17
4767;BME280;2397;53.576;9.746;2023-04-25T06:17:21;100770.25;;;6.38;74.43
4767;BME280;2397;53.576;9.746;2023-04-25T06:19:49;100759.47;;;6.21;74.89
4767;BME280;2397;53.576;9.746;2023-04-25T06:22:16;100758.47;;;6.33;74.95
4767;BME280;2397;53.576;9.746;2023-04-25T06:24:42;100751.78;;;6.40;73.82
4767;BME280;2397;53.576;9.746;2023-04-25T06:27:09;100752.88;;;6.26;74.01
4767;BME280;2397;53.576;9.746;2023-04-25T06:29:36;100756.09;;;6.30;74.45
4767;BME280;2397;53.576;9.746;2023-04-25T06:32:02;100755.69;;;6.45;73.76
4767;BME280;2397;53.576;9.746;2023-04-25T06:34:29;100757.06;;;6.60;72.43
4767;BME280;2397;53.576;9.746;2023-04-25T06:36:56;100756.72;;;6.54;71.46
4767;BME280;2397;53.576;9.746;2023-04-25T06:39:23;100770.41;;;6.57;71.99
4767;BME280;2397;53.576;9.746;2023-04-25T06:41:51;100770.41;;;6.57;72.15
4767;BME280;2397;53.576;9.746;2023-04-25T06:44:39;100766.25;;;6.55;70.94
4767;BME280;2397;53.576;9.746;2023-04-25T06:47:08;100776.09;;;6.42;70.52
4767;BME280;2397;53.576;9.746;2023-04-25T06:49:35;100778.44;;;6.45;71.58
4767;BME280;2397;53.576;9.746;2023-04-25T06:52:01;100778.91;;;6.50;70.68
4767;BME280;2397;53.576;9.746;2023-04-25T06:54:28;100777.44;;;6.68;70.31
4767;BME280;2397;53.576;9.746;2023-04-25T06:57:04;100772.31;;;6.66;70.75
4767;BME280;2397;53.576;9.746;2023-04-25T06:59:32;100781.03;;;6.56;70.64
4767;BME280;2397;53.576;9.746;2023-04-25T07:01:59;100783.59;;;6.67;70.78
4767;BME280;2397;53.576;9.746;2023-04-25T07:04:25;100787.59;;;6.82;70.73
4767;BME280;2397;53.576;9.746;2023-04-25T07:06:55;100794.72;;;6.91;69.50
4767;BME280;2397;53.576;9.746;2023-04-25T07:09:29;100796.19;;;6.84;68.88
4767;BME280;2397;53.576;9.746;2023-04-25T07:11:56;100784.41;;;6.78;67.73
4767;BME280;2397;53.576;9.746;2023-04-25T07:14:23;100782.91;;;6.65;68.33
4767;BME280;2397;53.576;9.746;2023-04-25T07:16:49;100779.56;;;6.63;68.86
4767;BME280;2397;53.576;9.746;2023-04-25T07:19:16;100788.28;;;6.63;67.99
4767;BME280;2397;53.576;9.746;2023-04-25T07:21:42;100796.47;;;6.70;67.40
4767;BME280;2397;53.576;9.746;2023-04-25T07:24:10;100796.44;;;6.81;67.57
4767;BME280;2397;53.576;9.746;2023-04-25T07:26:40;100795.47;;;6.82;68.24
4767;BME280;2397;53.576;9.746;2023-04-25T07:29:20;100794.91;;;6.99;68.38
4767;BME280;2397;53.576;9.746;2023-04-25T07:31:46;100788.78;;;7.09;67.30
4767;BME280;2397;53.576;9.746;2023-04-25T07:34:13;100795.94;;;7.07;66.74
4767;BME280;2397;53.576;9.746;2023-04-25T07:36:40;100797.13;;;7.15;68.24
4767;BME280;2397;53.576;9.746;2023-04-25T07:39:07;100793.06;;;7.31;66.59
4767;BME280;2397;53.576;9.746;2023-04-25T07:41:35;100792.34;;;7.29;67.25
4767;BME280;2397;53.576;9.746;2023-04-25T07:44:02;100799.41;;;7.29;67.46
4767;BME280;2397;53.576;9.746;2023-04-25T07:46:30;100799.06;;;7.43;67.14
4767;BME280;2397;53.576;9.746;2023-04-25T07:48:57;100795.69;;;7.52;65.01
4767;BME280;2397;53.576;9.746;2023-04-25T07:51:23;100803.09;;;7.47;64.86
4767;BME280;2397;53.576;9.746;2023-04-25T07:53:52;100800.59;;;7.66;64.21
4767;BME280;2397;53.576;9.746;2023-04-25T07:56:20;100796.06;;;7.77;63.24
4767;BME280;2397;53.576;9.746;2023-04-25T07:58:47;100802.50;;;7.94;62.83
4767;BME280;2397;53.576;9.746;2023-04-25T08:01:15;100800.09;;;7.81;61.91
4767;BME280;2397;53.576;9.746;2023-04-25T08:03:48;100813.84;;;7.94;62.27
4767;BME280;2397;53.576;9.746;2023-04-25T08:06:21;100813.16;;;8.32;60.22
4767;BME280;2397;53.576;9.746;2023-04-25T08:09:03;100821.53;;;8.65;59.73
4767;BME280;2397;53.576;9.746;2023-04-25T08:11:36;100812.66;;;8.08;61.59
4767;BME280;2397;53.576;9.746;2023-04-25T08:14:03;100828.03;;;8.12;62.01
4767;BME280;2397;53.576;9.746;2023-04-25T08:16:30;100818.59;;;8.10;61.22
4767;BME280;2397;53.576;9.746;2023-04-25T08:18:57;100820.31;;;8.20;62.37
4767;BME280;2397;53.576;9.746;2023-04-25T08:21:23;100829.00;;;8.41;61.79
4767;BME280;2397;53.576;9.746;2023-04-25T08:23:52;100827.16;;;8.32;60.83
4767;BME280;2397;53.576;9.746;2023-04-25T08:26:24;100842.81;;;8.43;60.45
4767;BME280;2397;53.576;9.746;2023-04-25T08:28:52;100839.81;;;8.57;60.25
4767;BME280;2397;53.576;9.746;2023-04-25T08:31:19;100840.94;;;8.64;61.06
4767;BME280;2397;53.576;9.746;2023-04-25T08:33:55;100859.88;;;8.58;61.43
4767;BME280;2397;53.576;9.746;2023-04-25T08:36:30;100861.16;;;8.24;61.88
4767;BME280;2397;53.576;9.746;2023-04-25T08:39:17;100882.25;;;7.83;65.80
4767;BME280;2397;53.576;9.746;2023-04-25T08:42:01;100884.69;;;6.71;72.31
4767;BME280;2397;53.576;9.746;2023-04-25T08:44:30;100900.59;;;6.47;76.39
4767;BME280;2397;53.576;9.746;2023-04-25T08:46:57;100885.00;;;6.24;77.03
4767;BME280;2397;53.576;9.746;2023-04-25T08:49:28;100906.91;;;6.12;76.31
4767;BME280;2397;53.576;9.746;2023-04-25T08:51:59;100922.59;;;5.90;76.54
4767;BME280;2397;53.576;9.746;2023-04-25T08:54:27;100912.34;;;5.76;75.23
4767;BME280;2397;53.576;9.746;2023-04-25T08:57:03;100918.03;;;5.70;76.50
4767;BME280;2397;53.576;9.746;2023-04-25T08:59:32;100910.00;;;5.84;76.22
4767;BME280;2397;53.576;9.746;2023-04-25T09:02:00;100912.97;;;5.90;74.85
4767;BME280;2397;53.576;9.746;2023-04-25T09:04:31;100912.88;;;6.03;74.44
4767;BME280;2397;53.576;9.746;2023-04-25T09:06:57;100905.97;;;6.35;73.10
4767;BME280;2397;53.576;9.746;2023-04-25T09:09:25;100914.88;;;6.54;69.38
4767;BME280;2397;53.576;9.746;2023-04-25T09:11:54;100916.41;;;6.68;71.30
4767;BME280;2397;53.576;9.746;2023-04-25T09:14:22;100921.34;;;6.93;69.93
4767;BME280;2397;53.576;9.746;2023-04-25T09:17:19;100915.91;;;7.17;68.31
4767;BME280;2397;53.576;9.746;2023-04-25T09:19:48;100925.91;;;7.54;69.22
4767;BME280;2397;53.576;9.746;2023-04-25T09:22:26;100922.06;;;7.79;67.59
4767;BME280;2397;53.576;9.746;2023-04-25T09:24:53;100944.66;;;7.91;67.51
4767;BME280;2397;53.576;9.746;2023-04-25T09:27:23;100971.22;;;7.56;69.94
4767;BME280;2397;53.576;9.746;2023-04-25T09:29:57;100969.66;;;7.33;71.17
4767;BME280;2397;53.576;9.746;2023-04-25T09:32:38;100961.44;;;6.95;72.60
4767;BME280;2397;53.576;9.746;2023-04-25T09:35:05;100964.75;;;6.86;72.86
4767;BME280;2397;53.576;9.746;2023-04-25T09:37:32;100965.94;;;6.93;72.48
4767;BME280;2397;53.576;9.746;2023-04-25T09:40:24;100955.22;;;6.96;70.75
4767;BME280;2397;53.576;9.746;2023-04-25T09:42:57;100953.53;;;7.06;70.39
4767;BME280;2397;53.576;9.746;2023-04-25T09:45:25;100953.66;;;7.36;70.11
4767;BME280;2397;53.576;9.746;2023-04-25T09:47:55;100956.00;;;7.50;69.25
4767;BME280;2397;53.576;9.746;2023-04-25T09:50:30;100948.97;;;7.71;68.66
4767;BME280;2397;53.576;9.746;2023-04-25T09:53:05;100958.41;;;7.94;68.34
4767;BME280;2397;53.576;9.746;2023-04-25T09:55:48;100959.41;;;8.53;68.33
4767;BME280;2397;53.576;9.746;2023-04-25T09:58:15;100956.84;;;8.72;67.18
4767;BME280;2397;53.576;9.746;2023-04-25T10:00:41;100962.72;;;8.55;65.66
4767;BME280;2397;53.576;9.746;2023-04-25T10:03:24;100962.88;;;8.24;66.41
4767;BME280;2397;53.576;9.746;2023-04-25T10:06:18;100985.22;;;8.18;67.94
4767;BME280;2397;53.576;9.746;2023-04-25T10:08:50;100978.81;;;7.70;68.30
4767;BME280;2397;53.576;9.746;2023-04-25T10:11:17;100970.50;;;7.86;69.75
4767;BME280;2397;53.576;9.746;2023-04-25T10:13:45;100969.72;;;8.66;68.78
4767;BME280;2397;53.576;9.746;2023-04-25T10:16:12;100969.81;;;9.04;67.31
4767;BME280;2397;53.576;9.746;2023-04-25T10:18:39;100965.91;;;8.89;64.99
4767;BME280;2397;53.576;9.746;2023-04-25T10:21:06;100972.53;;;8.83;65.76
4767;BME280;2397;53.576;9.746;2023-04-25T10:23:33;100965.88;;;8.79;64.78
4767;BME280;2397;53.576;9.746;2023-04-25T10:26:01;100981.38;;;8.73;65.82
4767;BME280;2397;53.576;9.746;2023-04-25T10:28:28;100990.66;;;8.77;64.53
4767;BME280;2397;53.576;9.746;2023-04-25T10:33:38;100990.13;;;8.83;61.95
4767;BME280;2397;53.576;9.746;2023-04-25T10:38:36;100991.44;;;8.68;61.17
4767;BME280;2397;53.576;9.746;2023-04-25T10:41:08;100992.44;;;8.37;60.52
4767;BME280;2397;53.576;9.746;2023-04-25T10:43:46;100999.91;;;8.21;62.15
4767;BME280;2397;53.576;9.746;2023-04-25T10:46:21;100997.56;;;8.38;62.48
4767;BME280;2397;53.576;9.746;2023-04-25T10:48:53;101004.56;;;8.28;62.99
4767;BME280;2397;53.576;9.746;2023-04-25T10:54:05;101002.41;;;8.63;64.05
4767;BME280;2397;53.576;9.746;2023-04-25T10:56:42;101001.22;;;8.47;61.65
4767;BME280;2397;53.576;9.746;2023-04-25T10:59:12;100999.75;;;8.63;60.39
4767;BME280;2397;53.576;9.746;2023-04-25T11:01:44;100991.31;;;9.18;58.88
4767;BME280;2397;53.576;9.746;2023-04-25T11:09:38;100981.50;;;10.15;55.75
4767;BME280;2397;53.576;9.746;2023-04-25T11:12:06;100989.38;;;10.62;54.81
4767;BME280;2397;53.576;9.746;2023-04-25T11:14:33;100985.44;;;10.75;52.14
4767;BME280;2397;53.576;9.746;2023-04-25T11:17:00;100984.50;;;10.30;52.67
4767;BME280;2397;53.576;9.746;2023-04-25T11:19:29;100987.22;;;10.48;53.85
4767;BME280;2397;53.576;9.746;2023-04-25T11:21:57;101053.38;;;9.89;58.48
4767;BME280;2397;53.576;9.746;2023-04-25T11:24:28;101056.09;;;8.61;67.26
4767;BME280;2397;53.576;9.746;2023-04-25T11:26:56;101047.63;;;7.64;70.22
4767;BME280;2397;53.576;9.746;2023-04-25T11:29:23;101036.69;;;7.48;67.61
4767;BME280;2397;53.576;9.746;2023-04-25T11:31:50;101042.81;;;7.38;70.30
4767;BME280;2397;53.576;9.746;2023-04-25T11:34:18;101044.69;;;7.47;71.09
4767;BME280;2397;53.576;9.746;2023-04-25T11:36:45;101045.94;;;7.63;71.10
4767;BME280;2397;53.576;9.746;2023-04-25T11:39:12;101045.69;;;7.66;71.66
4767;BME280;2397;53.576;9.746;2023-04-25T11:41:41;101048.53;;;8.26;72.27
4767;BME280;2397;53.576;9.746;2023-04-25T11:44:08;101049.75;;;8.43;70.41
4767;BME280;2397;53.576;9.746;2023-04-25T11:46:35;101045.22;;;9.24;66.66
4767;BME280;2397;53.576;9.746;2023-04-25T11:49:02;101040.06;;;9.90;65.69
4767;BME280;2397;53.576;9.746;2023-04-25T11:51:29;101042.78;;;10.46;65.79
4767;BME280;2397;53.576;9.746;2023-04-25T11:53:56;101034.63;;;10.76;61.50
4767;BME280;2397;53.576;9.746;2023-04-25T11:56:23;101036.03;;;10.05;55.77
4767;BME280;2397;53.576;9.746;2023-04-25T11:59:00;101032.69;;;9.75;54.79
4767;BME280;2397;53.576;9.746;2023-04-25T12:01:35;101012.31;;;10.05;50.80
4767;BME280;2397;53.576;9.746;2023-04-25T12:04:22;101028.66;;;9.99;52.15
4767;BME280;2397;53.576;9.746;2023-04-25T12:06:51;101024.34;;;10.17;52.51
4767;BME280;2397;53.576;9.746;2023-04-25T12:09:20;101017.84;;;9.83;52.03
4767;BME280;2397;53.576;9.746;2023-04-25T12:11:48;101025.16;;;9.32;52.23
4767;BME280;2397;53.576;9.746;2023-04-25T12:14:28;101043.22;;;9.46;53.35
4767;BME280;2397;53.576;9.746;2023-04-25T12:16:56;101045.31;;;9.43;53.43
4767;BME280;2397;53.576;9.746;2023-04-25T12:19:33;101062.03;;;9.32;54.14
4767;BME280;2397;53.576;9.746;2023-04-25T12:22:01;101065.94;;;8.98;55.79
4767;BME280;2397;53.576;9.746;2023-04-25T12:24:29;101068.94;;;8.84;55.36
4767;BME280;2397;53.576;9.746;2023-04-25T12:27:01;101038.66;;;9.86;52.12
4767;BME280;2397;53.576;9.746;2023-04-25T12:29:30;101036.63;;;10.55;48.56
4767;BME280;2397;53.576;9.746;2023-04-25T12:32:13;101023.22;;;11.03;48.72
4767;BME280;2397;53.576;9.746;2023-04-25T12:34:40;101031.53;;;11.35;46.78
4767;BME280;2397;53.576;9.746;2023-04-25T12:37:06;101017.38;;;10.82;48.43
4767;BME280;2397;53.576;9.746;2023-04-25T12:39:33;101058.50;;;10.00;51.92
4767;BME280;2397;53.576;9.746;2023-04-25T12:41:59;101094.97;;;9.66;55.81
4767;BME280;2397;53.576;9.746;2023-04-25T12:44:26;101095.09;;;8.76;60.24
4767;BME280;2397;53.576;9.746;2023-04-25T12:46:53;101104.75;;;8.76;61.29
4767;BME280;2397;53.576;9.746;2023-04-25T12:49:20;101100.53;;;9.63;59.73
4767;BME280;2397;53.576;9.746;2023-04-25T12:51:47;101103.03;;;10.51;57.88
4767;BME280;2397;53.576;9.746;2023-04-25T12:54:13;101096.91;;;11.60;54.83
4767;BME280;2397;53.576;9.746;2023-04-25T12:56:41;101081.41;;;11.92;52.36
4767;BME280;2397;53.576;9.746;2023-04-25T12:59:08;101083.88;;;11.76;51.54
4767;BME280;2397;53.576;9.746;2023-04-25T13:01:36;101099.63;;;11.14;53.07
4767;BME280;2397;53.576;9.746;2023-04-25T13:04:03;101154.50;;;9.78;56.16
4767;BME280;2397;53.576;9.746;2023-04-25T13:06:30;101152.53;;;8.92;61.93
4767;BME280;2397;53.576;9.746;2023-04-25T13:08:57;101141.25;;;8.39;65.15
4767;BME280;2397;53.576;9.746;2023-04-25T13:11:24;101146.00;;;8.45;68.10
4767;BME280;2397;53.576;9.746;2023-04-25T13:13:50;101137.88;;;8.37;66.84
4767;BME280;2397;53.576;9.746;2023-04-25T13:16:18;101129.84;;;8.80;67.24
4767;BME280;2397;53.576;9.746;2023-04-25T13:18:47;101134.56;;;8.76;65.09
4767;BME280;2397;53.576;9.746;2023-04-25T13:21:14;101137.75;;;9.00;64.58
4767;BME280;2397;53.576;9.746;2023-04-25T13:23:41;101130.72;;;8.60;63.41
4767;BME280;2397;53.576;9.746;2023-04-25T13:26:09;101141.09;;;9.12;65.17
4767;BME280;2397;53.576;9.746;2023-04-25T13:28:35;101130.63;;;9.21;60.97
4767;BME280;2397;53.576;9.746;2023-04-25T13:31:02;101127.53;;;9.46;60.78
4767;BME280;2397;53.576;9.746;2023-04-25T13:33:28;101133.59;;;9.37;60.15
4767;BME280;2397;53.576;9.746;2023-04-25T13:35:55;101149.34;;;9.67;60.18
4767;BME280;2397;53.576;9.746;2023-04-25T13:38:24;101182.84;;;8.86;62.53
4767;BME280;2397;53.576;9.746;2023-04-25T13:40:52;101187.72;;;7.96;66.69
4767;BME280;2397;53.576;9.746;2023-04-25T13:43:22;101185.78;;;7.67;71.28
4767;BME280;2397;53.576;9.746;2023-04-25T13:45:49;101181.63;;;7.20;70.98
4767;BME280;2397;53.576;9.746;2023-04-25T13:48:18;101166.78;;;7.08;71.23
4767;BME280;2397;53.576;9.746;2023-04-25T13:50:44;101167.78;;;7.29;70.82
4767;BME280;2397;53.576;9.746;2023-04-25T13:53:12;101164.44;;;7.16;71.35